.
WxDataArchive / Data Records for 2015-01-27
2015-01-26 January 2015 2015-01-28

Data Records for Tuesday, 27 January 2015

Time	Temp	Chill	HIndex	Humid	Dewpt	 Wind 	HiWind	WindDir	Rain 	Barom
-----	----	-----	------	-----	-----	------	------	-------	-----	-----
00:00	18.0	18.0	18.0	77	12.0	0	0	---	0.00	29.981 
00:05	18.0	18.0	18.0	77	12.0	0	0	---	0.00	29.981 
00:10	18.0	18.0	18.0	77	12.0	0	0	---	0.00	29.981 
00:15	18.1	18.1	18.1	77	12.1	0	0	---	0.00	29.979 
00:20	18.1	18.1	18.1	77	12.1	0	0	---	0.00	29.979 
00:25	18.1	18.1	18.1	78	12.4	0	0	---	0.00	29.979 
00:30	18.1	18.1	18.1	77	12.1	0	0	---	0.00	29.975 
00:35	18.1	18.1	18.1	77	12.1	0	0	---	0.00	29.975 
00:40	18.1	18.1	18.1	77	12.1	0	0	---	0.00	29.975 
00:45	18.1	18.1	18.1	77	12.1	0	0	---	0.00	29.971 
00:50	18.3	18.3	18.3	77	12.3	0	1	45	0.00	29.971 
00:55	18.3	18.3	18.3	78	12.6	0	1	45	0.00	29.971 
01:00	18.3	18.3	18.3	78	12.6	0	1	45	0.00	29.969 
01:05	18.3	18.3	18.3	79	12.9	0	1	45	0.00	29.969 
01:10	18.3	18.3	18.3	78	12.6	0	1	45	0.00	29.969 
01:15	18.3	18.3	18.3	79	12.9	0	0	---	0.00	29.970 
01:20	18.3	18.3	18.3	79	12.9	0	0	---	0.00	29.970 
01:25	18.3	18.3	18.3	79	12.9	0	0	---	0.00	29.970 
01:30	18.3	18.3	18.3	79	12.9	0	0	---	0.00	29.967 
01:35	18.1	18.1	18.1	79	12.7	0	1	45	0.00	29.967 
01:40	18.1	18.1	18.1	79	12.7	0	1	45	0.00	29.967 
01:45	18.1	18.1	18.1	79	12.7	0	1	45	0.00	29.968 
01:50	18.1	18.1	18.1	79	12.7	0	1	45	0.00	29.968 
01:55	18.1	18.1	18.1	79	12.7	0	1	45	0.00	29.968 
02:00	18.1	18.1	18.1	79	12.7	0	0	---	0.00	29.971 
02:05	18.1	18.1	18.1	78	12.4	0	1	45	0.00	29.971 
02:10	18.1	18.1	18.1	78	12.4	0	1	45	0.00	29.971 
02:15	18.1	18.1	18.1	79	12.7	0	0	---	0.00	29.972 
02:20	18.1	18.1	18.1	79	12.7	0	0	---	0.00	29.972 
02:25	18.1	18.1	18.1	79	12.7	0	1	45	0.00	29.972 
02:30	18.1	18.1	18.1	80	13.0	0	1	45	0.00	29.972 
02:35	18.0	18.0	18.0	80	12.9	0	2	45	0.00	29.972 
02:40	18.0	18.0	18.0	80	12.9	0	1	45	0.00	29.972 
02:45	18.0	18.0	18.0	79	12.6	0	1	45	0.00	29.972 
02:50	18.0	18.0	18.0	80	12.9	0	1	45	0.00	29.972 
02:55	18.0	18.0	18.0	80	12.9	0	1	45	0.00	29.972 
03:00	17.8	17.8	17.8	80	12.7	0	0	---	0.00	29.974 
03:05	17.8	17.8	17.8	80	12.7	0	0	---	0.00	29.974 
03:10	17.8	17.8	17.8	80	12.7	0	0	---	0.00	29.974 
03:15	17.8	17.8	17.8	80	12.7	0	0	---	0.00	29.973 
03:20	17.8	17.8	17.8	80	12.7	0	0	---	0.00	29.973 
03:25	17.8	17.8	17.8	80	12.7	0	0	---	0.00	29.973 
03:30	17.8	17.8	17.8	81	13.0	0	1	45	0.00	29.978 
03:35	17.8	17.8	17.8	81	13.0	0	1	45	0.00	29.978 
03:40	17.8	17.8	17.8	81	13.0	0	2	45	0.00	29.978 
03:45	17.8	17.8	17.8	81	13.0	0	2	45	0.00	29.982 
03:50	17.8	17.8	17.8	81	13.0	0	1	45	0.00	29.982 
03:55	17.7	17.7	17.7	81	12.9	0	2	45	0.00	29.982 
04:00	17.5	17.5	17.5	81	12.7	0	1	45	0.00	29.991 
04:05	17.3	17.3	17.3	81	12.5	0	2	45	0.00	29.991 
04:10	17.2	17.2	17.2	81	12.4	0	0	---	0.00	29.991 
04:15	17.2	17.2	17.2	81	12.4	0	0	---	0.00	30.000 
04:20	17.0	17.0	17.0	81	12.2	0	1	45	0.00	30.000 
04:25	16.9	16.9	16.9	81	12.1	0	1	45	0.00	30.000 
04:30	16.7	16.7	16.7	81	11.9	0	2	45	0.00	30.009 
04:35	16.5	16.5	16.5	81	11.7	0	1	45	0.00	30.009 
04:40	16.4	16.4	16.4	81	11.6	0	2	45	0.00	30.009 
04:45	16.1	16.1	16.1	81	11.3	0	2	45	0.00	30.014 
04:50	15.9	15.9	15.9	81	11.1	0	3	45	0.00	30.014 
04:55	15.6	15.6	15.6	81	10.8	0	2	45	0.00	30.014 
05:00	15.4	15.4	15.4	81	10.6	0	1	45	0.00	30.017 
05:05	15.4	15.4	15.4	81	10.6	0	1	45	0.00	30.017 
05:10	15.2	15.2	15.2	81	10.4	0	1	45	0.00	30.017 
05:15	15.2	15.2	15.2	81	10.4	0	1	45	0.00	30.021 
05:20	15.2	15.2	15.2	81	10.4	0	1	45	0.00	30.021 
05:25	15.2	15.2	15.2	81	10.4	0	1	45	0.00	30.021 
05:30	15.2	15.2	15.2	82	10.7	0	3	45	0.00	30.020 
05:35	15.4	15.4	15.4	81	10.6	0	1	45	0.00	30.020 
05:40	15.4	15.4	15.4	82	10.9	0	2	45	0.00	30.020 
05:45	15.4	15.4	15.4	82	10.9	0	1	45	0.00	30.025 
05:50	15.4	15.4	15.4	82	10.9	0	1	45	0.00	30.025 
05:55	15.4	15.4	15.4	82	10.9	0	1	45	0.00	30.025 
06:00	15.6	15.6	15.6	82	11.1	0	0	---	0.00	30.027 
06:05	15.4	15.4	15.4	82	10.9	0	0	---	0.00	30.027 
06:10	15.4	15.4	15.4	82	10.9	0	1	45	0.00	30.027 
06:15	15.6	15.6	15.6	82	11.1	0	0	---	0.00	30.035 
06:20	15.6	15.6	15.6	82	11.1	0	0	---	0.00	30.035 
06:25	15.6	15.6	15.6	82	11.1	0	0	---	0.00	30.035 
06:30	15.7	15.7	15.7	82	11.2	0	0	---	0.00	30.042 
06:35	15.7	15.7	15.7	82	11.2	0	0	---	0.00	30.042 
06:40	15.7	15.7	15.7	82	11.2	0	0	---	0.00	30.042 
06:45	15.9	15.9	15.9	82	11.4	0	1	45	0.00	30.053 
06:50	15.9	15.9	15.9	82	11.4	0	1	45	0.00	30.053 
06:55	15.9	15.9	15.9	82	11.4	0	0	---	0.00	30.053 
07:00	15.9	15.9	15.9	82	11.4	0	0	---	0.00	30.061 
07:05	15.9	15.9	15.9	82	11.4	0	0	---	0.00	30.061 
07:10	15.9	15.9	15.9	82	11.4	0	0	---	0.00	30.061 
07:15	15.9	15.9	15.9	81	11.1	0	0	---	0.00	30.071 
07:20	15.7	15.7	15.7	81	10.9	0	0	---	0.00	30.071 
07:25	15.6	15.6	15.6	81	10.8	0	0	---	0.00	30.071 
07:30	15.4	15.4	15.4	81	10.6	0	0	---	0.00	30.080 
07:35	15.2	15.2	15.2	81	10.4	0	0	---	0.00	30.080 
07:40	15.1	15.1	15.1	82	10.6	0	0	---	0.00	30.080 
07:45	14.9	14.9	14.9	82	10.4	0	0	---	0.00	30.087 
07:50	14.8	14.8	14.8	81	10.0	0	0	---	0.00	30.087 
07:55	14.6	14.6	14.6	81	9.9	0	0	---	0.00	30.087 
08:00	14.4	14.4	14.4	81	9.7	0	0	---	0.00	30.095 
08:05	14.3	14.3	14.3	81	9.6	0	0	---	0.00	30.095 
08:10	14.1	14.1	14.1	81	9.4	0	0	---	0.00	30.095 
08:15	14.1	14.1	14.1	82	9.6	0	0	---	0.00	30.100 
08:20	14.1	14.1	14.1	82	9.6	0	0	---	0.00	30.100 
08:25	14.1	14.1	14.1	82	9.6	0	0	---	0.00	30.100 
08:30	14.6	14.6	14.6	83	10.4	0	0	---	0.00	30.105 
08:35	15.1	15.1	15.1	83	10.9	0	1	45	0.00	30.105 
08:40	15.9	15.9	15.9	83	11.7	0	1	45	0.00	30.105 
08:45	16.7	16.7	16.7	81	11.9	1	4	45	0.00	30.111 
08:50	17.3	17.3	17.3	79	11.9	1	4	45	0.00	30.111 
08:55	17.5	17.5	17.5	77	11.5	0	3	45	0.00	30.111 
09:00	17.5	17.5	17.5	76	11.3	0	2	45	0.00	30.114 
09:05	17.5	17.5	17.5	76	11.3	1	3	45	0.00	30.114 
09:10	17.5	17.5	17.5	76	11.3	0	2	45	0.00	30.114 
09:15	17.5	17.5	17.5	76	11.3	0	2	45	0.00	30.125 
09:20	17.5	17.5	17.5	76	11.3	0	3	45	0.00	30.125 
09:25	17.7	17.7	17.7	76	11.4	0	3	90	0.00	30.125 
09:30	17.7	17.7	17.7	76	11.4	1	4	90	0.00	30.131 
09:35	17.8	17.8	17.8	75	11.2	1	5	90	0.00	30.131 
09:40	18.1	18.1	18.1	75	11.5	1	4	90	0.00	30.131 
09:45	18.4	18.4	18.4	74	11.5	1	5	90	0.00	30.138 
09:50	18.9	18.9	18.9	74	12.0	1	6	90	0.00	30.138 
09:55	19.1	19.1	19.1	73	11.9	1	6	112	0.00	30.138 
10:00	19.1	19.1	19.1	73	11.9	1	5	112	0.00	30.143 
10:05	19.2	19.2	19.2	73	12.0	0	2	112	0.00	30.143 
10:10	19.2	19.2	19.2	73	12.0	0	2	112	0.00	30.143 
10:15	19.2	19.2	19.2	73	12.0	2	4	112	0.00	30.147 
10:20	19.2	19.2	19.2	73	12.0	1	5	112	0.00	30.147 
10:25	19.4	19.4	19.4	73	12.2	1	3	112	0.00	30.147 
10:30	19.5	19.5	19.5	73	12.3	1	4	45	0.00	30.154 
10:35	19.5	19.5	19.5	73	12.3	2	5	90	0.00	30.154 
10:40	19.7	19.7	19.7	73	12.5	1	4	0	0.00	30.154 
10:45	19.7	19.7	19.7	73	12.5	0	1	112	0.00	30.159 
10:50	19.9	19.9	19.9	73	12.7	2	6	112	0.00	30.159 
10:55	20.0	20.0	20.0	73	12.8	1	3	90	0.00	30.159 
11:00	20.3	20.3	20.3	73	13.1	0	2	90	0.00	30.160 
11:05	20.5	20.5	20.5	72	12.9	0	2	90	0.00	30.160 
11:10	20.6	20.6	20.6	72	13.0	1	4	90	0.00	30.160 
11:15	21.0	21.0	21.0	71	13.1	0	3	90	0.00	30.162 
11:20	21.0	21.0	21.0	70	12.8	0	2	90	0.00	30.162 
11:25	21.0	21.0	21.0	70	12.8	0	2	270	0.00	30.162 
11:30	21.1	21.1	21.1	70	12.9	1	3	270	0.00	30.158 
11:35	21.3	21.3	21.3	69	12.7	0	3	270	0.00	30.158 
11:40	21.4	21.4	21.4	69	12.8	0	2	22	0.00	30.158 
11:45	21.4	21.4	21.4	69	12.8	0	3	90	0.00	30.153 
11:50	21.8	21.8	21.8	68	12.9	1	6	90	0.00	30.153 
11:55	21.8	16.3	21.8	67	12.6	4	9	90	0.00	30.153 
12:00	21.6	21.6	21.6	67	12.4	3	6	90	0.00	30.145 
12:05	21.8	21.8	21.8	67	12.6	2	5	90	0.00	30.145 
12:10	21.8	21.8	21.8	66	12.2	1	4	90	0.00	30.145 
12:15	21.8	21.8	21.8	66	12.2	0	2	90	0.00	30.148 
12:20	21.9	21.9	21.9	66	12.3	0	2	90	0.00	30.148 
12:25	22.2	22.2	22.2	65	12.3	0	2	90	0.00	30.148 
12:30	22.4	22.4	22.4	65	12.4	0	2	90	0.00	30.157 
12:35	22.4	22.4	22.4	65	12.4	1	4	90	0.00	30.157 
12:40	22.5	22.5	22.5	65	12.5	0	3	90	0.00	30.157 
12:45	22.7	22.7	22.7	65	12.7	1	3	90	0.00	30.154 
12:50	22.5	22.5	22.5	65	12.5	1	4	90	0.00	30.154 
12:55	22.4	22.4	22.4	64	12.1	1	4	90	0.00	30.154 
13:00	22.4	22.4	22.4	65	12.4	1	3	90	0.00	30.152 
13:05	22.7	22.7	22.7	64	12.4	1	4	90	0.00	30.152 
13:10	22.5	22.5	22.5	64	12.2	1	5	90	0.00	30.152 
13:15	22.4	22.4	22.4	64	12.1	1	4	90	0.00	30.154 
13:20	22.5	22.5	22.5	65	12.5	0	2	90	0.00	30.154 
13:25	22.7	22.7	22.7	64	12.4	1	4	90	0.00	30.154 
13:30	22.9	22.9	22.9	64	12.6	0	3	90	0.00	30.153 
13:35	23.2	23.2	23.2	64	12.9	0	3	90	0.00	30.153 
13:40	23.3	23.3	23.3	63	12.6	0	1	90	0.00	30.153 
13:45	23.6	23.6	23.6	64	13.2	0	1	90	0.00	30.153 
13:50	23.6	23.6	23.6	63	12.9	0	2	90	0.00	30.153 
13:55	23.6	23.6	23.6	62	12.5	1	2	90	0.00	30.153 
14:00	23.8	23.8	23.8	62	12.7	0	3	90	0.00	30.154 
14:05	23.9	23.9	23.9	62	12.8	0	1	90	0.00	30.154 
14:10	24.1	24.1	24.1	62	13.0	0	2	90	0.00	30.154 
14:15	24.1	24.1	24.1	61	12.6	0	2	90	0.00	30.152 
14:20	24.4	24.4	24.4	61	12.9	0	3	90	0.00	30.152 
14:25	24.7	24.7	24.7	60	12.8	0	3	90	0.00	30.152 
14:30	25.0	25.0	25.0	57	11.9	1	2	90	0.00	30.155 
14:35	25.1	25.1	25.1	58	12.4	0	2	90	0.00	30.155 
14:40	25.3	25.3	25.3	57	12.2	0	3	90	0.00	30.155 
14:45	25.4	25.4	25.4	56	11.9	1	3	22	0.00	30.155 
14:50	25.4	25.4	25.4	56	11.9	0	2	22	0.00	30.155 
14:55	25.6	25.6	25.6	55	11.7	1	3	292	0.00	30.155 
15:00	25.7	25.7	25.7	55	11.8	0	2	292	0.00	30.161 
15:05	25.8	25.8	25.8	55	11.9	0	2	292	0.00	30.161 
15:10	25.8	25.8	25.8	55	11.9	1	4	292	0.00	30.161 
15:15	25.8	25.8	25.8	55	11.9	0	2	292	0.00	30.168 
15:20	26.0	26.0	26.0	54	11.7	0	3	292	0.00	30.168 
15:25	25.8	25.8	25.8	54	11.5	2	4	292	0.00	30.168 
15:30	26.0	26.0	26.0	55	12.1	0	2	292	0.00	30.175 
15:35	26.1	26.1	26.1	53	11.3	1	3	292	0.00	30.175 
15:40	26.3	26.3	26.3	53	11.5	0	2	292	0.00	30.175 
15:45	26.3	26.3	26.3	53	11.5	0	1	292	0.00	30.182 
15:50	26.3	26.3	26.3	54	11.9	1	3	292	0.00	30.182 
15:55	26.1	26.1	26.1	54	11.8	1	3	292	0.00	30.182 
16:00	26.3	26.3	26.3	54	11.9	1	2	292	0.00	30.185 
16:05	26.1	26.1	26.1	54	11.8	0	2	292	0.00	30.185 
16:10	26.1	26.1	26.1	54	11.8	0	2	292	0.00	30.185 
16:15	26.1	26.1	26.1	53	11.3	0	1	292	0.00	30.189 
16:20	26.1	26.1	26.1	53	11.3	0	3	292	0.00	30.189 
16:25	26.1	26.1	26.1	53	11.3	1	5	22	0.00	30.189 
16:30	26.1	26.1	26.1	53	11.3	1	3	292	0.00	30.190 
16:35	26.1	26.1	26.1	53	11.3	1	3	292	0.00	30.190 
16:40	26.0	26.0	26.0	53	11.2	1	3	292	0.00	30.190 
16:45	26.0	26.0	26.0	53	11.2	1	4	292	0.00	30.189 
16:50	26.0	26.0	26.0	53	11.2	1	3	292	0.00	30.189 
16:55	26.0	26.0	26.0	53	11.2	1	4	292	0.00	30.189 
17:00	25.8	25.8	25.8	53	11.1	1	3	292	0.00	30.192 
17:05	25.8	25.8	25.8	53	11.1	0	3	292	0.00	30.192 
17:10	25.7	25.7	25.7	53	11.0	0	1	292	0.00	30.192 
17:15	25.6	25.6	25.6	53	10.9	0	1	292	0.00	30.193 
17:20	25.4	25.4	25.4	54	11.1	0	3	292	0.00	30.193 
17:25	25.3	25.3	25.3	54	11.0	0	3	292	0.00	30.193 
17:30	25.1	25.1	25.1	54	10.8	0	1	292	0.00	30.202 
17:35	25.0	25.0	25.0	54	10.7	1	3	292	0.00	30.202 
17:40	24.8	24.8	24.8	53	10.1	0	2	292	0.00	30.202 
17:45	24.7	24.7	24.7	52	9.6	1	4	292	0.00	30.204 
17:50	24.4	24.4	24.4	51	8.9	0	2	292	0.00	30.204 
17:55	24.2	24.2	24.2	52	9.1	0	2	292	0.00	30.204 
18:00	24.1	24.1	24.1	52	9.1	0	1	292	0.00	30.210 
18:05	23.8	23.8	23.8	53	9.2	0	1	292	0.00	30.210 
18:10	23.6	23.6	23.6	54	9.4	0	1	292	0.00	30.210 
18:15	23.3	23.3	23.3	54	9.1	0	1	292	0.00	30.211 
18:20	23.2	23.2	23.2	54	9.1	0	1	292	0.00	30.211 
18:25	23.0	23.0	23.0	55	9.3	0	0	---	0.00	30.211 
18:30	22.7	22.7	22.7	55	9.0	0	0	---	0.00	30.221 
18:35	22.4	22.4	22.4	55	8.7	0	0	---	0.00	30.221 
18:40	22.2	22.2	22.2	56	8.9	0	0	---	0.00	30.221 
18:45	21.9	21.9	21.9	56	8.6	0	0	---	0.00	30.222 
18:50	21.6	21.6	21.6	57	8.8	0	0	---	0.00	30.222 
18:55	21.3	21.3	21.3	57	8.5	0	0	---	0.00	30.222 
19:00	21.0	21.0	21.0	58	8.6	0	0	---	0.00	30.229 
19:05	20.8	20.8	20.8	59	8.8	0	0	---	0.00	30.229 
19:10	20.5	20.5	20.5	60	8.9	0	0	---	0.00	30.229 
19:15	20.2	20.2	20.2	61	8.9	0	0	---	0.00	30.239 
19:20	19.9	19.9	19.9	61	8.7	0	0	---	0.00	30.239 
19:25	19.5	19.5	19.5	62	8.6	0	0	---	0.00	30.239 
19:30	19.4	19.4	19.4	64	9.2	0	0	---	0.00	30.245 
19:35	19.1	19.1	19.1	65	9.3	0	0	---	0.00	30.245 
19:40	18.9	18.9	18.9	66	9.4	0	0	---	0.00	30.245 
19:45	18.6	18.6	18.6	67	9.5	0	0	---	0.00	30.257 
19:50	18.3	18.3	18.3	68	9.5	0	0	---	0.00	30.257 
19:55	18.1	18.1	18.1	69	9.7	0	0	---	0.00	30.257 
20:00	17.8	17.8	17.8	70	9.7	0	0	---	0.00	30.260 
20:05	17.7	17.7	17.7	71	9.9	0	0	---	0.00	30.260 
20:10	17.5	17.5	17.5	71	9.7	0	0	---	0.00	30.260 
20:15	17.5	17.5	17.5	72	10.0	0	0	---	0.00	30.256 
20:20	17.2	17.2	17.2	72	9.8	0	0	---	0.00	30.256 
20:25	17.0	17.0	17.0	72	9.6	0	0	---	0.00	30.256 
20:30	16.9	16.9	16.9	72	9.5	0	0	---	0.00	30.259 
20:35	16.5	16.5	16.5	73	9.4	0	0	---	0.00	30.259 
20:40	16.4	16.4	16.4	73	9.3	0	0	---	0.00	30.259 
20:45	16.2	16.2	16.2	73	9.1	0	0	---	0.00	30.264 
20:50	15.9	15.9	15.9	73	8.8	0	0	---	0.00	30.264 
20:55	15.7	15.7	15.7	74	8.9	0	0	---	0.00	30.264 
21:00	15.6	15.6	15.6	74	8.8	0	0	---	0.00	30.270 
21:05	15.2	15.2	15.2	74	8.4	0	0	---	0.00	30.270 
21:10	14.9	14.9	14.9	74	8.1	0	0	---	0.00	30.270 
21:15	14.6	14.6	14.6	75	8.1	0	0	---	0.00	30.271 
21:20	14.3	14.3	14.3	75	7.9	0	0	---	0.00	30.271 
21:25	14.1	14.1	14.1	75	7.7	0	0	---	0.00	30.271 
21:30	14.0	14.0	14.0	76	7.9	0	0	---	0.00	30.276 
21:35	13.6	13.6	13.6	76	7.5	0	0	---	0.00	30.276 
21:40	13.5	13.5	13.5	77	7.7	0	0	---	0.00	30.276 
21:45	13.3	13.3	13.3	77	7.5	0	0	---	0.00	30.275 
21:50	13.1	13.1	13.1	77	7.3	0	0	---	0.00	30.275 
21:55	12.9	12.9	12.9	78	7.4	0	0	---	0.00	30.275 
22:00	12.8	12.8	12.8	78	7.3	0	0	---	0.00	30.275 
22:05	12.6	12.6	12.6	78	7.1	0	0	---	0.00	30.275 
22:10	12.4	12.4	12.4	79	7.2	0	0	---	0.00	30.275 
22:15	12.3	12.3	12.3	79	7.1	0	0	---	0.00	30.275 
22:20	12.1	12.1	12.1	79	6.9	0	0	---	0.00	30.275 
22:25	12.1	12.1	12.1	80	7.1	0	0	---	0.00	30.275 
22:30	11.9	11.9	11.9	80	6.9	0	0	---	0.00	30.274 
22:35	11.7	11.7	11.7	80	6.7	0	0	---	0.00	30.274 
22:40	11.6	11.6	11.6	81	6.9	0	0	---	0.00	30.274 
22:45	11.6	11.6	11.6	81	6.9	0	0	---	0.00	30.275 
22:50	11.6	11.6	11.6	81	6.9	0	0	---	0.00	30.275 
22:55	11.4	11.4	11.4	81	6.7	0	0	---	0.00	30.275 
23:00	11.4	11.4	11.4	81	6.7	0	0	---	0.00	30.277 
23:05	11.4	11.4	11.4	82	7.0	0	0	---	0.00	30.277 
23:10	11.4	11.4	11.4	82	7.0	0	0	---	0.00	30.277 
23:15	11.4	11.4	11.4	82	7.0	0	0	---	0.00	30.276 
23:20	11.2	11.2	11.2	82	6.8	0	0	---	0.00	30.276 
23:25	10.9	10.9	10.9	82	6.5	0	0	---	0.00	30.276 
23:30	10.7	10.7	10.7	82	6.3	0	0	---	0.00	30.275 
23:35	10.7	10.7	10.7	82	6.3	0	0	---	0.00	30.275 
23:40	10.5	10.5	10.5	82	6.1	0	0	---	0.00	30.275 
23:45	10.4	10.4	10.4	82	6.0	0	0	---	0.00	30.280 
23:50	10.2	10.2	10.2	82	5.8	0	0	---	0.00	30.280 
23:55	10.0	10.0	10.0	82	5.6	0	0	---	0.00	30.280 

CoCoRaHS
IN-AL-39
A2 Web Hosting
Creative Commons License
GoDaddy
search engine by freefind advanced

loaded 2018-11-17 12:45:14 • last modified 2010-11-18 10:43:29
Privacy PolicyDisclaimer
• wx.awcolley.com is powered by PmWiki v.2002016 •
• all content (unless otherwise noted) © 2018 A W Colley